Time;durP1;ratioP1;P1;durP2;ratioP2;P2;SDS_P1;SDS_P2;PMS_P1;PMS_P2;Temp;Humidity;BMP_temperature;BMP_pressure;BME280_temperature;BME280_humidity;BME280_pressure;Samples;Min_cycle;Max_cycle;Signal;HPM_P1;HPM_P2
2023/09/22 04:49:15;;;;;;;;;;;;;;;13.23;81.57;100484.05;110086;1278;22444;-44
2023/09/22 04:51:42;;;;;;;;;;;;;;;13.29;81.80;100488.39;108404;1264;23302;-44
2023/09/22 04:54:08;;;;;;;;;;;;;;;13.35;82.11;100490.63;107980;1257;22482;-44
2023/09/22 04:56:35;;;;;;;;;;;;;;;13.42;82.30;100489.16;107371;1269;24208;-44
2023/09/22 04:59:03;;;;;;;;;;;;;;;13.51;82.24;100491.70;107732;1269;22512;-44
2023/09/22 05:01:31;;;;;;;;;;;;;;;13.62;82.21;100491.61;107581;1270;25387;-45
2023/09/22 05:03:58;;;;;;;;;;;;;;;13.74;82.04;100496.59;107800;1272;23240;-43
2023/09/22 05:06:27;;;;;;;;;;;;;;;13.85;81.94;100493.31;109900;1264;22469;-49
2023/09/22 05:08:54;;;;;;;;;;;;;;;13.98;81.75;100486.16;110131;1270;22516;-50
2023/09/22 05:11:20;;;;;;;;;;;;;;;14.11;81.63;100486.01;110175;1270;22546;-44
2023/09/22 05:13:49;;;;;;;;;;;;;;;14.24;81.16;100487.44;109996;1273;22498;-50
2023/09/22 05:16:18;;;;;;;;;;;;;;;14.33;81.09;100485.04;110017;1273;23298;-50
2023/09/22 05:18:45;;;;;;;;;;;;;;;14.43;81.07;100481.41;110034;1276;22488;-45
2023/09/22 05:21:12;;;;;;;;;;;;;;;14.53;80.94;100481.50;109969;1273;22458;-44
2023/09/22 05:23:39;;;;;;;;;;;;;;;14.63;80.82;100481.88;109946;1264;22460;-44
2023/09/22 05:26:07;;;;;;;;;;;;;;;14.77;80.66;100485.55;109843;1272;23422;-50
2023/09/22 05:28:34;;;;;;;;;;;;;;;14.91;80.44;100485.70;109862;1276;22441;-50
2023/09/22 05:31:00;;;;;;;;;;;;;;;15.06;80.22;100485.65;109874;1270;22529;-49
2023/09/22 05:33:29;;;;;;;;;;;;;;;15.21;79.84;100484.37;109577;1276;23023;-51
2023/09/22 05:35:55;;;;;;;;;;;;;;;15.36;79.46;100483.23;109769;1271;22916;-45
2023/09/22 05:38:22;;;;;;;;;;;;;;;15.53;79.04;100483.64;109857;1264;23135;-43
2023/09/22 05:40:54;;;;;;;;;;;;;;;15.70;78.88;100483.02;109714;1275;22962;-43
2023/09/22 05:43:22;;;;;;;;;;;;;;;15.88;78.61;100480.59;109676;1270;23345;-43
2023/09/22 05:45:52;;;;;;;;;;;;;;;16.07;78.27;100479.89;109547;1273;22515;-44
2023/09/22 05:48:19;;;;;;;;;;;;;;;16.25;78.18;100482.16;109938;1260;22436;-50
2023/09/22 05:50:59;;;;;;;;;;;;;;;16.43;78.04;100488.83;109209;1270;22661;-45
2023/09/22 05:53:29;;;;;;;;;;;;;;;16.63;77.85;100489.81;108604;1276;22517;-50
2023/09/22 05:56:06;;;;;;;;;;;;;;;16.81;77.56;100492.62;109694;1272;22467;-50
2023/09/22 05:58:34;;;;;;;;;;;;;;;17.00;77.13;100493.23;109827;1270;22917;-44
2023/09/22 06:01:07;;;;;;;;;;;;;;;17.18;76.78;100496.31;109019;1272;22962;-45
2023/09/22 06:03:35;;;;;;;;;;;;;;;17.40;76.08;100489.10;109058;1275;22470;-45
2023/09/22 06:06:06;;;;;;;;;;;;;;;17.66;74.64;100487.20;109249;1273;23356;-50
2023/09/22 06:08:37;;;;;;;;;;;;;;;17.98;73.41;100483.21;109225;1278;22960;-44
2023/09/22 06:11:05;;;;;;;;;;;;;;;18.28;72.20;100485.02;109990;1273;22581;-44
2023/09/22 06:13:33;;;;;;;;;;;;;;;18.57;71.04;100482.74;109686;1277;23142;-44
2023/09/22 06:16:00;;;;;;;;;;;;;;;18.85;69.97;100483.70;108519;1274;23279;-44
2023/09/22 06:18:28;;;;;;;;;;;;;;;19.10;68.84;100480.41;110030;1270;22452;-49
2023/09/22 06:20:56;;;;;;;;;;;;;;;19.35;67.58;100483.30;109847;1273;22459;-50
2023/09/22 06:23:28;;;;;;;;;;;;;;;19.62;66.77;100480.48;109039;1273;22547;-50
2023/09/22 06:26:00;;;;;;;;;;;;;;;19.86;65.63;100481.25;109285;1278;22564;-44
2023/09/22 06:28:26;;;;;;;;;;;;;;;20.10;64.65;100479.85;109818;1270;22903;-45
2023/09/22 06:30:58;;;;;;;;;;;;;;;20.28;64.18;100480.59;109801;1267;22511;-44
2023/09/22 06:33:24;;;;;;;;;;;;;;;20.45;63.32;100478.77;108630;1267;22526;-48
2023/09/22 06:36:02;;;;;;;;;;;;;;;20.58;62.42;100483.40;109949;1273;22895;-49
2023/09/22 06:38:32;;;;;;;;;;;;;;;20.71;62.13;100480.05;108989;1272;22481;-49
2023/09/22 06:41:00;;;;;;;;;;;;;;;20.85;61.60;100480.56;109499;1264;193935;-44
2023/09/22 06:43:30;;;;;;;;;;;;;;;21.00;61.11;100483.89;109964;1266;22442;-50
2023/09/22 06:45:59;;;;;;;;;;;;;;;21.15;60.58;100487.88;109832;1270;23582;-50
2023/09/22 06:48:26;;;;;;;;;;;;;;;21.30;60.04;100489.77;109792;1270;22427;-50
2023/09/22 06:50:57;;;;;;;;;;;;;;;21.44;59.39;100486.72;109693;1279;23183;-50
2023/09/22 06:53:24;;;;;;;;;;;;;;;21.58;58.89;100482.23;109892;1269;22427;-49
2023/09/22 06:56:03;;;;;;;;;;;;;;;21.73;58.51;100482.10;109936;1272;22533;-45
2023/09/22 06:58:30;;;;;;;;;;;;;;;21.88;57.69;100477.77;109653;1270;22483;-49
2023/09/22 07:01:06;;;;;;;;;;;;;;;21.99;57.23;100477.60;109405;1264;22487;-48
2023/09/22 07:03:32;;;;;;;;;;;;;;;22.09;56.48;100479.83;109809;1264;22633;-49
2023/09/22 07:05:59;;;;;;;;;;;;;;;22.17;56.10;100480.42;110026;1272;22546;-45
2023/09/22 07:08:28;;;;;;;;;;;;;;;22.24;56.12;100480.42;109513;1272;22486;-46
2023/09/22 07:11:08;;;;;;;;;;;;;;;22.35;55.97;100483.84;108968;1270;22508;-50
2023/09/22 07:13:37;;;;;;;;;;;;;;;22.48;55.70;100477.91;109458;1270;23045;-44
2023/09/22 07:16:03;;;;;;;;;;;;;;;22.59;55.60;100478.46;109787;1273;23348;-49
2023/09/22 07:18:32;;;;;;;;;;;;;;;22.69;55.70;100480.28;108721;1268;23124;-43
2023/09/22 07:21:00;;;;;;;;;;;;;;;22.79;55.60;100476.41;109907;1271;23033;-43
2023/09/22 07:23:27;;;;;;;;;;;;;;;22.90;55.22;100475.59;109803;1271;23300;-45
2023/09/22 07:26:04;;;;;;;;;;;;;;;22.99;54.49;100475.14;109727;1271;22961;-45
2023/09/22 07:28:31;;;;;;;;;;;;;;;23.08;54.30;100475.23;109759;1273;23074;-51
2023/09/22 07:30:58;;;;;;;;;;;;;;;23.19;53.94;100470.29;109477;1273;22515;-45
2023/09/22 07:33:30;;;;;;;;;;;;;;;23.28;53.51;100470.00;109744;1273;22445;-45
2023/09/22 07:35:57;;;;;;;;;;;;;;;23.38;52.82;100471.96;109849;1277;25418;-50
2023/09/22 07:38:24;;;;;;;;;;;;;;;23.47;52.53;100467.81;109818;1277;22819;-51
2023/09/22 07:40:51;;;;;;;;;;;;;;;23.54;52.25;100473.50;109829;1273;23769;-44
2023/09/22 07:43:18;;;;;;;;;;;;;;;23.57;51.63;100471.54;109779;1273;23144;-46
2023/09/22 07:45:45;;;;;;;;;;;;;;;23.61;51.36;100470.30;109259;1273;23806;-52
2023/09/22 07:48:12;;;;;;;;;;;;;;;23.70;51.05;100472.02;109870;1275;23472;-44
2023/09/22 07:50:40;;;;;;;;;;;;;;;23.75;50.50;100469.77;109900;1270;23208;-50
2023/09/22 07:53:07;;;;;;;;;;;;;;;23.79;50.27;100466.73;109308;1277;22935;-51
2023/09/22 07:55:33;;;;;;;;;;;;;;;23.80;49.93;100464.48;109293;1278;22558;-50
2023/09/22 07:58:03;;;;;;;;;;;;;;;23.82;49.76;100461.54;110018;1278;22549;-52
2023/09/22 08:00:30;;;;;;;;;;;;;;;23.89;49.48;100462.27;110025;1270;22470;-50
2023/09/22 08:02:59;;;;;;;;;;;;;;;23.97;49.33;100462.01;109785;1274;22472;-51
2023/09/22 08:05:27;;;;;;;;;;;;;;;24.05;48.75;100463.19;109017;1269;22564;-52
2023/09/22 08:07:55;;;;;;;;;;;;;;;24.09;48.67;100453.92;109486;1258;23274;-52
2023/09/22 08:10:25;;;;;;;;;;;;;;;24.13;48.28;100447.45;109835;1273;23726;-45
2023/09/22 08:12:53;;;;;;;;;;;;;;;24.16;48.26;100446.04;109877;1272;22455;-45
2023/09/22 08:15:21;;;;;;;;;;;;;;;24.20;47.74;100449.23;109343;1273;25551;-47
2023/09/22 08:17:52;;;;;;;;;;;;;;;24.22;46.98;100445.74;109625;1272;23029;-51
2023/09/22 08:20:19;;;;;;;;;;;;;;;24.24;46.66;100447.94;109787;1272;22525;-52
2023/09/22 08:22:47;;;;;;;;;;;;;;;24.31;46.28;100445.05;109586;1273;23406;-52
2023/09/22 08:25:14;;;;;;;;;;;;;;;24.41;46.47;100448.44;109787;1272;22498;-46
2023/09/22 08:27:41;;;;;;;;;;;;;;;24.54;46.54;100447.73;109916;1270;23238;-52
2023/09/22 08:30:11;;;;;;;;;;;;;;;24.68;45.88;100448.22;109967;1272;22503;-53
2023/09/22 08:32:39;;;;;;;;;;;;;;;24.78;45.20;100446.02;109675;1276;22523;-51
2023/09/22 08:35:10;;;;;;;;;;;;;;;24.83;44.70;100444.14;109909;1270;22466;-51
2023/09/22 08:37:40;;;;;;;;;;;;;;;24.85;44.84;100437.95;109673;1278;23491;-44
2023/09/22 08:40:15;;;;;;;;;;;;;;;24.91;44.36;100442.98;109153;1274;22586;-45
2023/09/22 08:42:47;;;;;;;;;;;;;;;24.90;42.82;100443.02;109361;1271;22949;-45
2023/09/22 08:45:14;;;;;;;;;;;;;;;24.81;42.81;100432.48;109313;1264;23381;-50
2023/09/22 08:47:42;;;;;;;;;;;;;;;24.75;43.33;100431.03;109525;1267;23047;-51
2023/09/22 08:50:18;;;;;;;;;;;;;;;24.78;43.48;100429.83;109087;1273;22543;-53
2023/09/22 08:52:48;;;;;;;;;;;;;;;24.89;43.11;100427.95;108551;1264;22782;-45
2023/09/22 08:55:15;;;;;;;;;;;;;;;25.00;42.19;100433.20;109932;1269;24119;-44
2023/09/22 08:57:45;;;;;;;;;;;;;;;24.99;41.96;100430.19;109119;1264;23123;-45
2023/09/22 09:00:18;;;;;;;;;;;;;;;25.00;42.46;100426.09;109917;1270;22470;-45
2023/09/22 09:02:45;;;;;;;;;;;;;;;25.08;42.72;100428.98;109688;1272;22498;-44
2023/09/22 09:05:20;;;;;;;;;;;;;;;25.15;42.40;100423.40;109844;1278;22435;-45
2023/09/22 09:07:47;;;;;;;;;;;;;;;25.24;42.21;100420.20;109617;1271;22979;-51
2023/09/22 09:10:27;;;;;;;;;;;;;;;25.31;41.68;100416.38;109927;1271;22450;-51
2023/09/22 09:12:54;;;;;;;;;;;;;;;25.39;41.49;100412.33;109785;1270;22446;-51
2023/09/22 09:15:21;;;;;;;;;;;;;;;25.49;41.63;100415.17;109730;1275;23063;-51
2023/09/22 09:17:58;;;;;;;;;;;;;;;25.52;41.19;100417.30;109728;1272;23073;-52
2023/09/22 09:20:25;;;;;;;;;;;;;;;25.37;40.76;100416.57;109723;1273;22602;-53
2023/09/22 09:22:52;;;;;;;;;;;;;;;25.20;40.80;100419.20;109620;1270;23658;-51
2023/09/22 09:25:19;;;;;;;;;;;;;;;25.07;40.48;100425.99;109870;1272;22447;-53
2023/09/22 09:27:46;;;;;;;;;;;;;;;25.02;40.59;100418.48;109692;1272;23342;-45
2023/09/22 09:30:13;;;;;;;;;;;;;;;25.07;41.38;100423.31;109636;1271;23086;-52
2023/09/22 09:32:42;;;;;;;;;;;;;;;25.20;41.38;100415.80;109685;1278;22433;-52
2023/09/22 09:35:11;;;;;;;;;;;;;;;25.31;41.41;100420.68;109973;1273;22450;-52
2023/09/22 09:37:40;;;;;;;;;;;;;;;25.39;41.12;100418.77;109975;1277;22972;-53
2023/09/22 09:40:10;;;;;;;;;;;;;;;25.39;41.08;100417.32;109312;1275;23311;-44
2023/09/22 09:42:38;;;;;;;;;;;;;;;25.46;41.04;100421.89;109124;1272;23320;-44
2023/09/22 09:45:05;;;;;;;;;;;;;;;25.56;40.89;100416.91;109833;1273;22441;-48
2023/09/22 09:47:35;;;;;;;;;;;;;;;25.68;40.96;100414.52;109747;1269;22492;-45
2023/09/22 09:50:04;;;;;;;;;;;;;;;25.83;40.70;100412.23;109908;1260;22523;-52
2023/09/22 09:52:38;;;;;;;;;;;;;;;25.97;40.04;100413.30;109917;1273;22539;-46
2023/09/22 09:55:08;;;;;;;;;;;;;;;26.08;40.01;100407.98;108985;1277;22522;-43
2023/09/22 09:57:39;;;;;;;;;;;;;;;26.13;39.56;100407.98;109443;1271;23004;-45
2023/09/22 10:00:12;;;;;;;;;;;;;;;26.04;39.75;100410.41;109456;1272;23296;-46
2023/09/22 10:02:43;;;;;;;;;;;;;;;25.85;39.33;100413.71;110162;1268;22448;-48
2023/09/22 10:05:17;;;;;;;;;;;;;;;25.71;39.82;100412.77;110046;1273;23697;-45
2023/09/22 10:07:48;;;;;;;;;;;;;;;25.66;40.15;100413.02;109543;1273;23176;-45
2023/09/22 10:10:16;;;;;;;;;;;;;;;25.78;40.13;100413.58;109987;1272;22543;-52
2023/09/22 10:12:43;;;;;;;;;;;;;;;26.04;39.03;100412.70;109504;1270;23450;-45
2023/09/22 10:15:10;;;;;;;;;;;;;;;26.12;37.97;100408.83;109285;1272;23502;-44
2023/09/22 10:17:39;;;;;;;;;;;;;;;26.15;38.28;100402.73;109459;1273;23003;-45
2023/09/22 10:20:10;;;;;;;;;;;;;;;26.30;37.91;100400.55;109651;1268;22522;-44
2023/09/22 10:22:39;;;;;;;;;;;;;;;26.64;38.05;100402.48;109851;1275;22432;-53
2023/09/22 10:25:12;;;;;;;;;;;;;;;27.09;35.86;100400.02;109935;1272;23372;-53
2023/09/22 10:27:57;;;;;;;;;;;;;;;27.44;34.62;100404.27;109825;1278;22501;-45
2023/09/22 10:30:45;;;;;;;;;;;;;;;27.71;34.42;100400.80;109894;1271;22440;-45
2023/09/22 10:33:15;;;;;;;;;;;;;;;28.09;34.56;100395.13;109837;1272;22435;-45
2023/09/22 10:35:42;;;;;;;;;;;;;;;28.52;33.97;100392.42;109909;1272;22461;-45
2023/09/22 10:38:14;;;;;;;;;;;;;;;28.98;33.04;100389.17;109919;1271;23012;-44
2023/09/22 10:40:59;;;;;;;;;;;;;;;29.37;32.76;100385.30;109729;1272;23244;-52
2023/09/22 10:43:26;;;;;;;;;;;;;;;29.54;32.39;100384.00;110006;1272;22445;-52
2023/09/22 10:45:53;;;;;;;;;;;;;;;29.56;31.74;100391.25;110014;1271;22575;-52
2023/09/22 10:48:20;;;;;;;;;;;;;;;29.58;31.46;100388.95;109858;1273;22648;-52
2023/09/22 10:50:50;;;;;;;;;;;;;;;29.63;31.11;100387.81;109909;1273;22450;-52
2023/09/22 10:53:17;;;;;;;;;;;;;;;29.85;30.56;100383.36;109948;1269;22569;-51
2023/09/22 10:55:44;;;;;;;;;;;;;;;30.13;30.16;100377.39;110005;1272;22478;-52
2023/09/22 10:58:16;;;;;;;;;;;;;;;30.47;29.20;100378.80;109969;1275;23299;-52
2023/09/22 11:01:04;;;;;;;;;;;;;;;30.56;29.05;100375.66;109836;1275;22483;-53
2023/09/22 11:03:35;;;;;;;;;;;;;;;30.83;28.80;100373.25;109837;1270;22429;-53
2023/09/22 11:06:06;;;;;;;;;;;;;;;31.09;28.45;100370.02;109991;1272;23400;-45
2023/09/22 11:08:34;;;;;;;;;;;;;;;31.26;28.07;100363.69;109922;1273;22462;-44
2023/09/22 11:11:02;;;;;;;;;;;;;;;31.54;27.76;100361.66;109811;1272;22500;-51
2023/09/22 11:13:29;;;;;;;;;;;;;;;31.93;27.31;100359.56;109924;1271;22465;-53
2023/09/22 11:15:57;;;;;;;;;;;;;;;32.11;26.82;100358.70;109968;1272;22446;-53
2023/09/22 11:18:35;;;;;;;;;;;;;;;32.09;26.54;100361.02;110010;1272;23112;-52
2023/09/22 11:21:05;;;;;;;;;;;;;;;31.85;27.02;100356.31;109977;1267;22479;-52
2023/09/22 11:23:32;;;;;;;;;;;;;;;31.51;27.48;100351.85;109915;1273;22485;-52
2023/09/22 11:25:59;;;;;;;;;;;;;;;31.19;28.08;100353.49;110012;1272;23029;-52
2023/09/22 11:28:31;;;;;;;;;;;;;;;30.90;28.26;100355.27;109862;1272;22633;-53
2023/09/22 11:31:14;;;;;;;;;;;;;;;30.57;28.99;100352.89;109887;1272;22972;-54
2023/09/22 11:33:41;;;;;;;;;;;;;;;30.29;29.13;100348.04;110024;1272;22493;-51
2023/09/22 11:36:08;;;;;;;;;;;;;;;30.08;29.08;100346.70;109967;1273;22554;-52
2023/09/22 11:38:39;;;;;;;;;;;;;;;29.85;29.45;100344.95;109924;1262;22441;-52
2023/09/22 11:41:08;;;;;;;;;;;;;;;29.57;29.06;100344.95;109900;1269;22443;-52
2023/09/22 11:43:35;;;;;;;;;;;;;;;29.37;29.34;100347.35;109885;1271;23191;-53
2023/09/22 11:46:29;;;;;;;;;;;;;;;29.19;29.16;100342.34;109913;1271;22467;-52
2023/09/22 11:48:57;;;;;;;;;;;;;;;28.96;29.34;100345.38;109901;1272;22528;-52
2023/09/22 11:51:44;;;;;;;;;;;;;;;28.84;28.80;100343.73;109905;1274;22443;-52
2023/09/22 11:54:12;;;;;;;;;;;;;;;28.66;28.89;100341.16;109938;1272;22427;-52
2023/09/22 11:56:40;;;;;;;;;;;;;;;28.55;28.87;100346.95;109928;1269;22469;-52
2023/09/22 11:59:07;;;;;;;;;;;;;;;28.40;29.08;100346.83;110069;1273;22470;-52
2023/09/22 12:01:34;;;;;;;;;;;;;;;28.20;29.13;100344.14;110100;1272;23230;-52
2023/09/22 12:04:01;;;;;;;;;;;;;;;28.03;29.31;100340.55;110051;1276;22445;-52
2023/09/22 12:06:28;;;;;;;;;;;;;;;27.90;29.72;100337.31;110041;1267;23508;-52
2023/09/22 12:08:56;;;;;;;;;;;;;;;27.84;29.60;100330.45;109636;1267;22490;-44
2023/09/22 12:11:23;;;;;;;;;;;;;;;27.76;29.63;100326.67;109940;1277;22574;-44
2023/09/22 12:13:50;;;;;;;;;;;;;;;27.73;29.81;100325.98;110022;1272;22508;-44
2023/09/22 12:16:17;;;;;;;;;;;;;;;27.73;29.64;100327.41;109986;1265;22989;-44
2023/09/22 12:18:44;;;;;;;;;;;;;;;27.73;29.70;100332.10;109958;1271;22540;-45
2023/09/22 12:21:11;;;;;;;;;;;;;;;27.71;29.84;100327.41;109913;1271;23310;-44
2023/09/22 12:23:38;;;;;;;;;;;;;;;27.73;29.53;100324.23;109983;1276;22440;-44
2023/09/22 12:26:05;;;;;;;;;;;;;;;27.75;29.80;100320.98;109870;1272;22466;-44
2023/09/22 12:28:32;;;;;;;;;;;;;;;27.82;29.74;100327.31;109968;1277;22455;-44
2023/09/22 12:30:59;;;;;;;;;;;;;;;27.89;29.79;100327.74;109968;1276;22435;-44
2023/09/22 12:33:26;;;;;;;;;;;;;;;27.88;29.99;100324.77;109791;1275;22884;-44
2023/09/22 12:35:54;;;;;;;;;;;;;;;27.82;30.08;100317.97;109905;1278;22448;-45
2023/09/22 12:38:23;;;;;;;;;;;;;;;27.77;30.56;100311.94;109976;1274;22451;-45
2023/09/22 12:40:51;;;;;;;;;;;;;;;27.77;30.88;100314.76;109908;1272;23674;-45
2023/09/22 12:43:17;;;;;;;;;;;;;;;27.80;30.80;100309.02;109909;1277;22423;-45
2023/09/22 12:45:44;;;;;;;;;;;;;;;27.85;30.80;100312.62;110023;1276;23225;-44
2023/09/22 12:48:12;;;;;;;;;;;;;;;27.99;30.88;100309.26;110032;1273;22474;-44
2023/09/22 12:50:39;;;;;;;;;;;;;;;28.18;30.78;100308.27;110009;1278;22539;-45
2023/09/22 12:53:06;;;;;;;;;;;;;;;28.28;30.59;100310.88;110006;1278;22943;-45
2023/09/22 12:55:32;;;;;;;;;;;;;;;28.31;30.39;100311.61;110087;1273;22448;-47
2023/09/22 12:57:59;;;;;;;;;;;;;;;28.32;30.29;100311.90;109855;1278;22470;-45
2023/09/22 13:00:26;;;;;;;;;;;;;;;28.32;30.30;100312.05;110067;1272;22558;-45
2023/09/22 13:02:52;;;;;;;;;;;;;;;28.29;30.56;100312.63;110123;1278;22438;-45
2023/09/22 13:05:19;;;;;;;;;;;;;;;28.25;30.64;100313.29;109950;1278;22573;-45
2023/09/22 13:07:46;;;;;;;;;;;;;;;28.27;30.63;100312.07;110142;1268;23146;-51
2023/09/22 13:10:13;;;;;;;;;;;;;;;28.42;30.48;100307.36;110146;1278;22556;-45
2023/09/22 13:12:42;;;;;;;;;;;;;;;28.61;30.50;100307.75;110149;1278;23175;-45
2023/09/22 13:15:09;;;;;;;;;;;;;;;28.63;30.06;100310.85;110162;1278;23648;-52
2023/09/22 13:17:36;;;;;;;;;;;;;;;28.48;30.19;100305.52;110113;1263;23342;-45
2023/09/22 13:20:06;;;;;;;;;;;;;;;28.41;30.13;100310.70;110163;1275;22470;-52
2023/09/22 13:22:33;;;;;;;;;;;;;;;28.41;29.92;100313.75;110134;1278;23192;-45
2023/09/22 13:25:00;;;;;;;;;;;;;;;28.42;29.49;100310.80;110149;1278;23318;-46
2023/09/22 13:27:28;;;;;;;;;;;;;;;28.47;30.06;100308.61;110114;1267;22440;-51
2023/09/22 13:29:55;;;;;;;;;;;;;;;28.56;30.21;100305.83;109726;1278;23040;-53
2023/09/22 13:32:21;;;;;;;;;;;;;;;28.59;30.24;100300.73;108889;1269;23257;-45
2023/09/22 13:34:48;;;;;;;;;;;;;;;28.62;30.36;100300.52;107544;1267;22646;-51
2023/09/22 13:37:15;;;;;;;;;;;;;;;28.57;30.42;100302.31;107068;1278;22513;-53
2023/09/22 13:39:42;;;;;;;;;;;;;;;28.51;30.45;100301.68;107205;1278;22501;-53
2023/09/22 13:42:10;;;;;;;;;;;;;;;28.44;30.44;100301.34;107690;1268;25427;-45
2023/09/22 13:44:38;;;;;;;;;;;;;;;28.33;30.50;100304.25;107640;1267;24207;-52
2023/09/22 13:47:05;;;;;;;;;;;;;;;28.21;30.59;100307.11;107277;1267;22582;-45
2023/09/22 13:49:33;;;;;;;;;;;;;;;28.09;30.99;100308.36;107887;1277;22595;-45
2023/09/22 13:52:00;;;;;;;;;;;;;;;28.00;31.43;100302.41;107452;1277;23347;-46
2023/09/22 13:54:27;;;;;;;;;;;;;;;27.95;31.61;100306.68;107677;1262;22584;-45
2023/09/22 13:56:54;;;;;;;;;;;;;;;27.88;31.61;100303.23;107721;1269;22539;-45
2023/09/22 13:59:21;;;;;;;;;;;;;;;27.81;31.70;100301.39;107266;1277;22504;-51
2023/09/22 14:01:48;;;;;;;;;;;;;;;27.82;31.71;100302.77;107700;1277;24366;-44
2023/09/22 14:04:15;;;;;;;;;;;;;;;27.81;31.77;100297.97;107722;1277;22525;-44
2023/09/22 14:06:42;;;;;;;;;;;;;;;27.74;31.90;100297.63;107942;1277;22539;-53
2023/09/22 14:09:10;;;;;;;;;;;;;;;27.69;31.69;100297.42;107507;1277;25306;-53
2023/09/22 14:11:37;;;;;;;;;;;;;;;27.70;31.44;100295.92;108083;1267;22630;-44
2023/09/22 14:14:03;;;;;;;;;;;;;;;27.74;31.24;100296.21;107436;1266;22553;-52
2023/09/22 14:16:30;;;;;;;;;;;;;;;27.73;31.24;100295.91;107438;1267;22569;-52
2023/09/22 14:18:58;;;;;;;;;;;;;;;27.73;31.32;100291.05;107536;1266;24213;-52
2023/09/22 14:21:25;;;;;;;;;;;;;;;27.70;31.12;100295.38;107050;1263;22543;-46
2023/09/22 14:23:52;;;;;;;;;;;;;;;27.67;31.44;100296.15;107467;1273;24234;-44
2023/09/22 14:26:19;;;;;;;;;;;;;;;27.65;31.66;100296.30;107317;1268;22508;-44
2023/09/22 14:28:46;;;;;;;;;;;;;;;27.60;31.92;100293.55;107154;1277;22511;-45
2023/09/22 14:31:13;;;;;;;;;;;;;;;27.63;32.10;100294.10;107415;1269;22503;-45
2023/09/22 14:33:42;;;;;;;;;;;;;;;27.70;31.73;100295.19;107507;1265;22515;-52
2023/09/22 14:36:10;;;;;;;;;;;;;;;27.67;31.83;100293.83;107607;1262;22543;-45
2023/09/22 14:38:36;;;;;;;;;;;;;;;27.64;31.92;100288.30;107128;1267;22521;-44
2023/09/22 14:41:07;;;;;;;;;;;;;;;27.72;31.72;100288.25;107425;1272;25459;-54
2023/09/22 14:43:34;;;;;;;;;;;;;;;27.96;31.64;100291.89;107371;1278;25327;-45
2023/09/22 14:46:01;;;;;;;;;;;;;;;28.17;31.31;100294.18;107228;1269;22765;-46
2023/09/22 14:48:28;;;;;;;;;;;;;;;28.10;31.15;100293.78;107605;1267;22520;-50
2023/09/22 14:50:59;;;;;;;;;;;;;;;27.92;31.38;100297.23;107710;1269;22511;-52
2023/09/22 14:53:26;;;;;;;;;;;;;;;27.74;31.89;100293.85;107308;1267;22981;-46
2023/09/22 14:55:53;;;;;;;;;;;;;;;27.61;32.21;100294.40;107508;1267;22550;-45
2023/09/22 14:58:20;;;;;;;;;;;;;;;27.57;32.27;100292.53;107161;1278;22514;-44
2023/09/22 15:00:46;;;;;;;;;;;;;;;27.48;32.41;100295.83;107664;1268;22634;-52
2023/09/22 15:03:14;;;;;;;;;;;;;;;27.32;32.50;100295.00;106886;1278;23120;-45
2023/09/22 15:05:43;;;;;;;;;;;;;;;27.09;32.83;100295.66;107699;1278;24263;-46
2023/09/22 15:08:10;;;;;;;;;;;;;;;27.01;33.18;100293.50;108350;1269;23281;-45
2023/09/22 15:10:37;;;;;;;;;;;;;;;27.13;33.25;100295.08;107627;1279;22633;-44
2023/09/22 15:13:03;;;;;;;;;;;;;;;27.23;33.05;100293.84;108519;1272;24213;-43
2023/09/22 15:15:30;;;;;;;;;;;;;;;27.36;33.15;100293.46;108491;1278;22505;-44
2023/09/22 15:17:57;;;;;;;;;;;;;;;27.60;32.97;100295.23;109575;1269;22516;-46
